sensor_id;sensor_type;location;lat;lon;timestamp;pressure;altitude;pressure_sealevel;temperature
49557;BMP280;35462;45.048;7.666;2022-09-12T00:13:07;98907.13;;;24.81
49557;BMP280;35462;45.048;7.666;2022-09-12T00:28:26;98901.00;;;24.70
49557;BMP280;35462;45.048;7.666;2022-09-12T00:43:48;98907.19;;;24.59
49557;BMP280;35462;45.048;7.666;2022-09-12T00:59:13;98902.81;;;24.40
49557;BMP280;35462;45.048;7.666;2022-09-12T01:14:33;98892.25;;;24.20
49557;BMP280;35462;45.048;7.666;2022-09-12T01:31:18;98901.13;;;24.15
49557;BMP280;35462;45.048;7.666;2022-09-12T01:46:16;98889.53;;;24.15
49557;BMP280;35462;45.048;7.666;2022-09-12T02:01:41;98890.06;;;24.02
49557;BMP280;35462;45.048;7.666;2022-09-12T02:17:08;98888.56;;;23.74
49557;BMP280;35462;45.048;7.666;2022-09-12T02:47:57;98881.19;;;23.80
49557;BMP280;35462;45.048;7.666;2022-09-12T03:19:24;98880.19;;;23.67
49557;BMP280;35462;45.048;7.666;2022-09-12T03:34:45;98872.28;;;23.52
49557;BMP280;35462;45.048;7.666;2022-09-12T03:50:04;98879.19;;;23.42
49557;BMP280;35462;45.048;7.666;2022-09-12T04:05:25;98875.75;;;23.47
49557;BMP280;35462;45.048;7.666;2022-09-12T04:20:44;98880.63;;;23.32
49557;BMP280;35462;45.048;7.666;2022-09-12T04:36:09;98891.41;;;23.27
49557;BMP280;35462;45.048;7.666;2022-09-12T04:51:34;98899.75;;;23.18
49557;BMP280;35462;45.048;7.666;2022-09-12T05:06:54;98902.22;;;23.16
49557;BMP280;35462;45.048;7.666;2022-09-12T05:22:13;98902.22;;;23.16
49557;BMP280;35462;45.048;7.666;2022-09-12T05:37:33;98929.69;;;23.04
49557;BMP280;35462;45.048;7.666;2022-09-12T05:52:52;98932.63;;;23.06
49557;BMP280;35462;45.048;7.666;2022-09-12T06:08:12;98950.16;;;23.21
49557;BMP280;35462;45.048;7.666;2022-09-12T06:23:32;98945.31;;;23.47
49557;BMP280;35462;45.048;7.666;2022-09-12T06:39:03;98944.03;;;23.26
49557;BMP280;35462;45.048;7.666;2022-09-12T06:54:23;98955.59;;;23.37
49557;BMP280;35462;45.048;7.666;2022-09-12T07:09:44;98958.06;;;25.50
49557;BMP280;35462;45.048;7.666;2022-09-12T07:25:04;98955.34;;;26.85
49557;BMP280;35462;45.048;7.666;2022-09-12T07:40:23;98947.41;;;27.61
49557;BMP280;35462;45.048;7.666;2022-09-12T07:55:42;98955.06;;;28.06
49557;BMP280;35462;45.048;7.666;2022-09-12T08:11:04;98968.59;;;27.68
49557;BMP280;35462;45.048;7.666;2022-09-12T08:26:24;98957.50;;;27.79
49557;BMP280;35462;45.048;7.666;2022-09-12T08:41:45;98960.53;;;27.26
49557;BMP280;35462;45.048;7.666;2022-09-12T08:57:08;98969.00;;;27.72
49557;BMP280;35462;45.048;7.666;2022-09-12T09:27:52;98955.63;;;27.74
49557;BMP280;35462;45.048;7.666;2022-09-12T09:58:35;98939.00;;;27.77
49557;BMP280;35462;45.048;7.666;2022-09-12T10:13:54;98932.16;;;27.83
49557;BMP280;35462;45.048;7.666;2022-09-12T10:29:15;98911.56;;;27.88
49557;BMP280;35462;45.048;7.666;2022-09-12T10:44:33;98891.56;;;28.11
49557;BMP280;35462;45.048;7.666;2022-09-12T11:15:33;98874.16;;;28.40
49557;BMP280;35462;45.048;7.666;2022-09-12T11:46:39;98862.78;;;28.75
49557;BMP280;35462;45.048;7.666;2022-09-12T12:01:58;98834.53;;;28.85
49557;BMP280;35462;45.048;7.666;2022-09-12T12:17:17;98820.09;;;28.64
49557;BMP280;35462;45.048;7.666;2022-09-12T12:32:33;98812.94;;;28.74
49557;BMP280;35462;45.048;7.666;2022-09-12T12:47:53;98790.00;;;28.70
49557;BMP280;35462;45.048;7.666;2022-09-12T13:03:24;98782.63;;;28.78
49557;BMP280;35462;45.048;7.666;2022-09-12T13:18:45;98757.81;;;28.89
49557;BMP280;35462;45.048;7.666;2022-09-12T13:34:04;98748.19;;;28.88
49557;BMP280;35462;45.048;7.666;2022-09-12T13:49:31;98730.75;;;28.91
49557;BMP280;35462;45.048;7.666;2022-09-12T14:04:50;98718.09;;;29.00
49557;BMP280;35462;45.048;7.666;2022-09-12T14:20:22;98695.16;;;28.96
49557;BMP280;35462;45.048;7.666;2022-09-12T14:35:41;98679.53;;;29.04
49557;BMP280;35462;45.048;7.666;2022-09-12T14:50:58;98658.50;;;29.12
49557;BMP280;35462;45.048;7.666;2022-09-12T15:21:36;98647.41;;;29.10
49557;BMP280;35462;45.048;7.666;2022-09-12T15:36:52;98639.03;;;29.08
49557;BMP280;35462;45.048;7.666;2022-09-12T15:52:08;98632.59;;;28.98
49557;BMP280;35462;45.048;7.666;2022-09-12T16:07:28;98636.03;;;28.98
49557;BMP280;35462;45.048;7.666;2022-09-12T16:22:44;98619.75;;;28.86
49557;BMP280;35462;45.048;7.666;2022-09-12T16:38:00;98618.31;;;28.85
49557;BMP280;35462;45.048;7.666;2022-09-12T16:53:16;98611.69;;;28.73
49557;BMP280;35462;45.048;7.666;2022-09-12T17:08:34;98612.56;;;28.68
49557;BMP280;35462;45.048;7.666;2022-09-12T17:23:50;98616.25;;;28.50
49557;BMP280;35462;45.048;7.666;2022-09-12T17:39:06;98622.91;;;28.21
49557;BMP280;35462;45.048;7.666;2022-09-12T17:54:22;98616.75;;;28.28
49557;BMP280;35462;45.048;7.666;2022-09-12T18:09:39;98654.31;;;28.22
49557;BMP280;35462;45.048;7.666;2022-09-12T18:24:55;98668.38;;;28.13
49557;BMP280;35462;45.048;7.666;2022-09-12T18:40:11;98678.44;;;28.05
49557;BMP280;35462;45.048;7.666;2022-09-12T18:55:27;98710.34;;;27.84
49557;BMP280;35462;45.048;7.666;2022-09-12T19:10:53;98716.41;;;27.78
49557;BMP280;35462;45.048;7.666;2022-09-12T19:26:11;98737.06;;;27.60
49557;BMP280;35462;45.048;7.666;2022-09-12T19:41:27;98737.03;;;27.47
49557;BMP280;35462;45.048;7.666;2022-09-12T19:56:43;98743.41;;;27.37
49557;BMP280;35462;45.048;7.666;2022-09-12T20:11:59;98753.63;;;27.18
49557;BMP280;35462;45.048;7.666;2022-09-12T20:27:15;98747.97;;;27.03
49557;BMP280;35462;45.048;7.666;2022-09-12T20:42:31;98762.06;;;27.02
49557;BMP280;35462;45.048;7.666;2022-09-12T20:57:48;98767.53;;;26.83
49557;BMP280;35462;45.048;7.666;2022-09-12T21:13:04;98776.16;;;26.51
49557;BMP280;35462;45.048;7.666;2022-09-12T21:28:20;98771.22;;;26.31
49557;BMP280;35462;45.048;7.666;2022-09-12T21:43:37;98784.78;;;26.31
49557;BMP280;35462;45.048;7.666;2022-09-12T21:58:53;98802.72;;;26.21
49557;BMP280;35462;45.048;7.666;2022-09-12T22:14:09;98801.53;;;26.16
49557;BMP280;35462;45.048;7.666;2022-09-12T22:29:26;98790.41;;;25.96
49557;BMP280;35462;45.048;7.666;2022-09-12T22:44:41;98797.13;;;25.90
49557;BMP280;35462;45.048;7.666;2022-09-12T22:59:58;98807.66;;;25.75
49557;BMP280;35462;45.048;7.666;2022-09-12T23:15:15;98821.03;;;25.67
49557;BMP280;35462;45.048;7.666;2022-09-12T23:30:30;98820.56;;;25.63
49557;BMP280;35462;45.048;7.666;2022-09-12T23:45:46;98839.63;;;25.52
